createdAt,value
2022-08-11T00:02:00.804Z,19.62
2022-08-11T00:04:36.044Z,19.68
2022-08-11T00:07:05.270Z,19.77
2022-08-11T00:09:39.317Z,19.82
2022-08-11T00:12:18.089Z,19.98
2022-08-11T00:14:46.606Z,19.98
2022-08-11T00:17:16.326Z,19.76
2022-08-11T00:20:11.732Z,19.56
2022-08-11T00:22:41.714Z,19.64
2022-08-11T00:25:20.692Z,19.80
2022-08-11T00:27:49.202Z,19.88
2022-08-11T00:30:17.295Z,19.88
2022-08-11T00:32:55.344Z,19.71
2022-08-11T00:35:51.046Z,19.62
2022-08-11T00:38:17.326Z,19.69
2022-08-11T00:41:31.271Z,19.78
2022-08-11T00:44:12.157Z,19.66
2022-08-11T00:47:15.909Z,19.56
2022-08-11T00:50:07.452Z,19.42
2022-08-11T00:53:02.120Z,19.33
2022-08-11T00:55:59.574Z,19.31
2022-08-11T00:59:34.106Z,19.18
2022-08-11T01:02:18.363Z,18.99
2022-08-11T01:05:49.030Z,19.05
2022-08-11T01:08:42.334Z,19.01
2022-08-11T01:11:28.117Z,18.93
2022-08-11T01:14:52.841Z,18.99
2022-08-11T01:18:17.166Z,19.16
2022-08-11T01:20:48.526Z,19.20
2022-08-11T01:24:29.364Z,19.21
2022-08-11T01:27:33.176Z,19.19
2022-08-11T01:30:18.769Z,19.35
2022-08-11T01:33:41.078Z,19.47
2022-08-11T01:36:35.111Z,19.24
2022-08-11T01:40:08.361Z,19.29
2022-08-11T01:43:34.619Z,19.38
2022-08-11T01:46:21.772Z,19.31
2022-08-11T01:50:05.127Z,19.36
2022-08-11T01:52:30.177Z,19.41
2022-08-11T01:55:27.961Z,19.26
2022-08-11T01:58:43.847Z,19.17
2022-08-11T02:01:28.040Z,19.15
2022-08-11T02:04:12.957Z,19.19
2022-08-11T02:07:02.429Z,19.20
2022-08-11T02:09:29.203Z,19.11
2022-08-11T02:12:32.078Z,19.06
2022-08-11T02:15:18.017Z,19.07
2022-08-11T02:18:04.081Z,19.07
2022-08-11T02:21:04.401Z,18.97
2022-08-11T02:24:05.668Z,18.82
2022-08-11T02:26:55.864Z,18.77
2022-08-11T02:29:38.553Z,18.82
2022-08-11T02:32:29.833Z,18.76
2022-08-11T02:35:42.880Z,18.75
2022-08-11T02:38:49.208Z,18.80
2022-08-11T02:41:47.223Z,18.69
2022-08-11T02:44:51.357Z,18.53
2022-08-11T02:47:30.484Z,18.47
2022-08-11T02:50:23.803Z,18.42
2022-08-11T02:53:00.879Z,18.54
2022-08-11T02:55:57.374Z,18.55
2022-08-11T02:58:36.893Z,18.34
2022-08-11T03:01:23.555Z,18.29
2022-08-11T03:04:21.204Z,18.07
2022-08-11T03:07:01.109Z,18.12
2022-08-11T03:10:42.778Z,18.11
2022-08-11T03:13:44.361Z,18.07
2022-08-11T03:16:45.083Z,17.88
2022-08-11T03:19:57.334Z,17.91
2022-08-11T03:22:38.722Z,17.93
2022-08-11T03:25:34.678Z,17.92
2022-08-11T03:28:34.230Z,17.77
2022-08-11T03:31:19.911Z,17.56
2022-08-11T03:34:13.145Z,17.67
2022-08-11T03:37:15.037Z,17.59
2022-08-11T03:40:38.627Z,17.64
2022-08-11T03:43:28.653Z,17.43
2022-08-11T03:46:16.760Z,17.56
2022-08-11T03:49:29.574Z,17.38
2022-08-11T03:52:22.493Z,17.27
2022-08-11T03:55:28.614Z,17.17
2022-08-11T03:58:20.134Z,17.42
2022-08-11T04:01:06.001Z,17.60
2022-08-11T04:03:57.707Z,17.55
2022-08-11T04:06:47.509Z,17.54
2022-08-11T04:09:35.924Z,17.28
2022-08-11T04:12:53.238Z,17.05
2022-08-11T04:16:12.434Z,16.94
2022-08-11T04:18:54.785Z,16.82
2022-08-11T04:22:02.797Z,16.86
2022-08-11T04:24:52.292Z,16.95
2022-08-11T04:27:45.126Z,17.34
2022-08-11T04:30:30.339Z,17.29
2022-08-11T04:33:10.323Z,17.33
2022-08-11T04:36:21.241Z,17.33
2022-08-11T04:39:20.275Z,17.24
2022-08-11T04:42:52.942Z,17.14
2022-08-11T04:46:09.264Z,17.00
2022-08-11T04:49:35.478Z,17.09
2022-08-11T04:53:19.563Z,17.31
2022-08-11T04:56:26.736Z,17.04
2022-08-11T04:59:30.489Z,17.09
2022-08-11T05:02:30.942Z,16.95
2022-08-11T05:05:36.417Z,16.95
2022-08-11T05:08:59.681Z,16.94
2022-08-11T05:12:01.598Z,17.27
2022-08-11T05:15:12.390Z,17.18
2022-08-11T05:18:26.047Z,16.94
2022-08-11T05:21:15.242Z,17.06
2022-08-11T05:24:12.025Z,17.24
2022-08-11T05:27:13.837Z,17.39
2022-08-11T05:30:12.192Z,17.43
2022-08-11T05:33:04.340Z,17.21
2022-08-11T05:36:02.163Z,17.17
2022-08-11T05:38:54.619Z,17.49
2022-08-11T05:41:48.989Z,17.62
2022-08-11T05:44:39.117Z,17.80
2022-08-11T05:47:26.294Z,17.87
2022-08-11T05:50:15.482Z,17.91
2022-08-11T05:53:09.238Z,17.98
2022-08-11T05:56:03.706Z,18.11
2022-08-11T05:58:42.770Z,18.22
2022-08-11T06:01:14.470Z,18.26
2022-08-11T06:04:04.529Z,18.41
2022-08-11T06:06:31.968Z,18.50
2022-08-11T06:09:00.989Z,18.54
2022-08-11T06:11:42.869Z,18.63
2022-08-11T06:14:15.296Z,18.67
2022-08-11T06:16:47.679Z,18.79
2022-08-11T06:19:16.422Z,18.89
2022-08-11T06:21:50.815Z,18.96
2022-08-11T06:24:19.374Z,19.04
2022-08-11T06:27:12.367Z,19.16
2022-08-11T06:29:55.221Z,19.26
2022-08-11T06:32:33.191Z,19.38
2022-08-11T06:35:10.146Z,19.49
2022-08-11T06:38:06.535Z,19.58
2022-08-11T06:41:23.177Z,19.71
2022-08-11T06:44:10.723Z,19.87
2022-08-11T06:46:53.148Z,19.97
2022-08-11T06:49:52.681Z,20.03
2022-08-11T06:52:35.940Z,20.16
2022-08-11T06:55:55.427Z,20.29
2022-08-11T06:58:41.617Z,20.41
2022-08-11T07:01:16.527Z,20.59
2022-08-11T07:03:49.963Z,20.75
2022-08-11T07:06:50.536Z,20.90
2022-08-11T07:10:00.522Z,21.02
2022-08-11T07:13:44.902Z,21.16
2022-08-11T07:16:18.820Z,21.31
2022-08-11T07:19:25.852Z,21.43
2022-08-11T07:22:15.770Z,21.57
2022-08-11T07:25:20.153Z,21.71
2022-08-11T07:28:29.592Z,21.89
2022-08-11T07:31:04.781Z,22.08
2022-08-11T07:34:10.245Z,22.28
2022-08-11T07:36:55.284Z,22.44
2022-08-11T07:39:38.064Z,22.63
2022-08-11T07:42:11.084Z,22.81
2022-08-11T07:44:59.377Z,22.98
2022-08-11T07:47:47.296Z,23.16
2022-08-11T07:50:34.003Z,23.31
2022-08-11T07:53:02.977Z,23.51
2022-08-11T07:55:51.212Z,23.69
2022-08-11T07:58:45.561Z,23.89
2022-08-11T08:01:44.483Z,24.06
2022-08-11T08:04:35.703Z,24.25
2022-08-11T08:07:23.815Z,24.44
2022-08-11T08:10:14.047Z,24.66
2022-08-11T08:13:02.402Z,24.91
2022-08-11T08:15:50.385Z,25.10
2022-08-11T08:18:26.768Z,25.36
2022-08-11T08:21:11.723Z,25.54
2022-08-11T08:23:42.211Z,25.76
2022-08-11T08:26:32.320Z,25.97
2022-08-11T08:29:22.187Z,26.18
2022-08-11T08:31:52.786Z,26.33
2022-08-11T08:34:21.691Z,26.46
2022-08-11T08:36:51.547Z,26.62
2022-08-11T08:39:22.915Z,26.81
2022-08-11T08:41:57.196Z,26.97
2022-08-11T08:44:38.317Z,27.14
2022-08-11T08:47:16.871Z,27.37
2022-08-11T08:50:10.398Z,27.50
2022-08-11T08:52:58.302Z,27.71
2022-08-11T08:55:29.037Z,27.86
2022-08-11T08:58:00.499Z,27.95
2022-08-11T09:00:42.553Z,28.10
2022-08-11T09:03:38.560Z,28.17
2022-08-11T09:06:00.826Z,28.28
2022-08-11T09:08:32.695Z,28.41
2022-08-11T09:11:23.634Z,28.52
2022-08-11T09:14:04.941Z,28.59
2022-08-11T09:16:35.449Z,28.48
2022-08-11T09:19:03.828Z,28.75
2022-08-11T09:21:36.861Z,28.82
2022-08-11T09:24:37.766Z,28.98
2022-08-11T09:27:07.914Z,29.17
2022-08-11T09:29:37.983Z,29.35
2022-08-11T09:32:07.134Z,29.41
2022-08-11T09:34:37.365Z,29.42
2022-08-11T09:37:53.711Z,29.55
2022-08-11T09:40:30.539Z,29.57
2022-08-11T09:43:24.593Z,29.77
2022-08-11T09:45:54.861Z,29.84
2022-08-11T09:48:27.876Z,30.01
2022-08-11T09:50:59.894Z,30.01
2022-08-11T09:53:36.218Z,30.18
2022-08-11T09:56:36.399Z,30.18
2022-08-11T09:59:05.841Z,30.35
2022-08-11T10:01:47.326Z,30.65
2022-08-11T10:04:37.110Z,30.86
2022-08-11T10:07:10.480Z,31.07
2022-08-11T10:09:58.837Z,31.04
2022-08-11T10:12:33.126Z,31.13
2022-08-11T10:15:29.395Z,31.23
2022-08-11T10:18:26.285Z,31.33
2022-08-11T10:21:00.591Z,31.41
2022-08-11T10:24:00.876Z,31.53
2022-08-11T10:27:05.766Z,31.80
2022-08-11T10:29:56.629Z,32.01
2022-08-11T10:32:57.669Z,31.85
2022-08-11T10:35:29.430Z,31.89
2022-08-11T10:38:07.441Z,32.03
2022-08-11T10:40:40.703Z,32.14
2022-08-11T10:43:56.815Z,32.35
2022-08-11T10:46:30.345Z,32.56
2022-08-11T10:49:00.011Z,32.59
2022-08-11T10:55:02.271Z,32.62
2022-08-11T10:58:05.158Z,32.57
2022-08-11T11:00:35.007Z,32.92
2022-08-11T11:03:23.254Z,33.19
2022-08-11T11:06:12.621Z,33.55
2022-08-11T11:08:54.072Z,33.78
2022-08-11T11:11:46.091Z,33.83
2022-08-11T11:14:46.672Z,33.95
2022-08-11T11:18:01.815Z,33.92
2022-08-11T11:21:05.555Z,33.92
2022-08-11T11:23:47.246Z,34.38
2022-08-11T11:26:55.888Z,34.75
2022-08-11T11:30:01.467Z,35.24
2022-08-11T11:33:04.362Z,35.41
2022-08-11T11:36:09.025Z,35.63
2022-08-11T11:38:36.445Z,35.89
2022-08-11T11:41:22.374Z,36.22
2022-08-11T11:43:49.597Z,36.49
2022-08-11T11:46:18.107Z,36.89
2022-08-11T11:48:45.798Z,37.38
2022-08-11T11:51:16.477Z,37.59
2022-08-11T11:53:45.470Z,37.27
2022-08-11T11:56:14.273Z,37.60
2022-08-11T11:59:00.436Z,37.52
2022-08-11T12:01:28.871Z,37.37
2022-08-11T12:03:58.118Z,37.80
2022-08-11T12:06:27.630Z,38.15
2022-08-11T12:08:58.378Z,38.38
2022-08-11T12:11:46.701Z,38.49
2022-08-11T12:14:21.107Z,38.28
2022-08-11T12:16:49.192Z,37.95
2022-08-11T12:19:25.559Z,38.18
2022-08-11T12:22:15.501Z,38.68
2022-08-11T12:25:02.059Z,38.95
2022-08-11T12:27:31.383Z,39.05
2022-08-11T12:30:09.261Z,38.76
2022-08-11T12:32:39.563Z,38.97
2022-08-11T12:35:08.243Z,38.89
2022-08-11T12:37:45.983Z,39.03
2022-08-11T12:41:13.667Z,39.40
2022-08-11T12:43:57.063Z,39.38
2022-08-11T12:46:31.886Z,39.60
2022-08-11T12:49:27.897Z,39.76
2022-08-11T12:52:14.452Z,40.03
2022-08-11T12:55:00.148Z,39.84
2022-08-11T12:57:58.270Z,39.57
2022-08-11T13:00:50.074Z,39.83
2022-08-11T13:03:40.047Z,39.95
2022-08-11T13:06:09.101Z,39.91
2022-08-11T13:08:40.354Z,39.67
2022-08-11T13:11:56.854Z,39.83
2022-08-11T13:14:17.138Z,39.77
2022-08-11T13:17:05.478Z,39.99
2022-08-11T13:19:34.483Z,40.02
2022-08-11T13:22:07.235Z,39.48
2022-08-11T13:24:36.250Z,39.89
2022-08-11T13:27:04.117Z,40.19
2022-08-11T13:29:31.736Z,40.10
2022-08-11T13:32:00.222Z,39.95
2022-08-11T13:34:33.658Z,39.95
2022-08-11T13:37:05.210Z,40.03
2022-08-11T13:39:34.606Z,40.13
2022-08-11T13:42:04.626Z,40.34
2022-08-11T13:44:37.794Z,40.22
2022-08-11T13:47:08.474Z,40.07
2022-08-11T13:49:39.764Z,40.09
2022-08-11T13:52:13.618Z,39.71
2022-08-11T13:54:42.734Z,39.53
2022-08-11T13:58:06.262Z,39.41
2022-08-11T14:00:13.018Z,39.42
2022-08-11T14:02:54.031Z,39.39
2022-08-11T14:05:33.879Z,39.46
2022-08-11T14:08:37.455Z,39.59
2022-08-11T14:12:22.097Z,39.32
2022-08-11T14:14:30.270Z,39.19
2022-08-11T14:17:01.700Z,39.18
2022-08-11T14:19:35.673Z,39.26
2022-08-11T14:22:09.581Z,39.17
2022-08-11T14:24:43.725Z,38.84
2022-08-11T14:28:29.785Z,38.63
2022-08-11T14:30:26.395Z,38.64
2022-08-11T14:32:56.075Z,38.59
2022-08-11T14:35:26.172Z,38.48
2022-08-11T14:37:54.331Z,38.28
2022-08-11T14:40:40.104Z,38.26
2022-08-11T14:44:10.399Z,38.18
2022-08-11T14:49:00.854Z,37.24
2022-08-11T14:51:28.875Z,37.30
2022-08-11T14:54:17.540Z,37.51
2022-08-11T14:56:44.959Z,37.51
2022-08-11T14:59:13.849Z,37.43
2022-08-11T15:02:00.704Z,37.33
2022-08-11T15:04:36.212Z,37.16
2022-08-11T15:07:05.120Z,36.77
2022-08-11T15:10:10.140Z,36.74
2022-08-11T15:12:35.543Z,36.76
2022-08-11T15:15:24.673Z,36.64
2022-08-11T15:17:59.956Z,36.54
2022-08-11T15:20:48.346Z,36.35
2022-08-11T15:23:39.689Z,36.22
2022-08-11T15:26:19.437Z,35.96
2022-08-11T15:29:11.152Z,35.73
2022-08-11T15:31:57.864Z,35.48
2022-08-11T15:34:49.718Z,34.87
2022-08-11T15:37:29.499Z,34.28
2022-08-11T15:40:45.897Z,33.83
2022-08-11T15:43:34.095Z,33.47
2022-08-11T15:46:19.871Z,33.11
2022-08-11T15:48:57.965Z,32.98
2022-08-11T15:51:36.126Z,32.88
2022-08-11T15:54:11.738Z,32.79
2022-08-11T15:56:46.348Z,32.73
2022-08-11T15:59:43.014Z,32.61
2022-08-11T16:02:17.668Z,32.46
2022-08-11T16:04:50.160Z,32.38
2022-08-11T16:07:29.327Z,32.26
2022-08-11T16:10:09.698Z,32.04
2022-08-11T16:13:07.079Z,32.05
2022-08-11T16:16:15.015Z,31.92
2022-08-11T16:18:57.599Z,31.91
2022-08-11T16:21:35.206Z,31.85
2022-08-11T16:26:30.503Z,31.84
2022-08-11T16:27:11.607Z,31.74
2022-08-11T16:29:48.149Z,31.72
2022-08-11T16:32:27.065Z,31.65
2022-08-11T16:35:21.128Z,31.59
2022-08-11T16:38:10.522Z,31.52
2022-08-11T16:40:40.029Z,31.47
2022-08-11T16:43:30.931Z,31.39
2022-08-11T16:46:37.607Z,31.25
2022-08-11T16:49:34.771Z,31.20
2022-08-11T16:52:04.297Z,31.13
2022-08-11T16:54:36.343Z,31.03
2022-08-11T16:57:32.547Z,30.95
2022-08-11T17:00:06.250Z,30.89
2022-08-11T17:02:58.633Z,30.84
2022-08-11T17:05:54.226Z,30.82
2022-08-11T17:08:57.104Z,30.67
2022-08-11T17:11:52.533Z,30.61
2022-08-11T17:14:37.015Z,30.58
2022-08-11T17:17:16.791Z,30.52
2022-08-11T17:20:40.336Z,30.42
2022-08-11T17:23:03.668Z,30.39
2022-08-11T17:26:03.543Z,30.34
2022-08-11T17:28:34.147Z,30.30
2022-08-11T17:31:22.644Z,30.27
2022-08-11T17:34:11.407Z,30.14
2022-08-11T17:36:45.135Z,30.08
2022-08-11T17:39:14.377Z,30.04
2022-08-11T17:42:03.302Z,29.99
2022-08-11T17:44:51.618Z,29.91
2022-08-11T17:47:38.954Z,29.85
2022-08-11T17:50:16.240Z,29.77
2022-08-11T17:53:05.881Z,29.76
2022-08-11T17:55:57.630Z,29.67
2022-08-11T17:58:45.890Z,29.62
2022-08-11T18:01:15.217Z,29.56
2022-08-11T18:03:54.604Z,29.59
2022-08-11T18:06:33.587Z,29.57
2022-08-11T18:09:27.737Z,29.51
2022-08-11T18:12:15.157Z,29.41
2022-08-11T18:15:07.989Z,29.32
2022-08-11T18:17:55.390Z,29.16
2022-08-11T18:20:42.877Z,29.06
2022-08-11T18:23:46.342Z,28.97
2022-08-11T18:26:39.206Z,28.87
2022-08-11T18:29:26.838Z,28.75
2022-08-11T18:32:20.790Z,28.49
2022-08-11T18:35:13.031Z,28.30
2022-08-11T18:38:07.419Z,28.16
2022-08-11T18:40:54.731Z,28.05
2022-08-11T18:43:44.593Z,27.93
2022-08-11T18:46:35.300Z,27.79
2022-08-11T18:50:03.522Z,27.65
2022-08-11T18:52:42.471Z,27.41
2022-08-11T18:55:35.224Z,27.28
2022-08-11T18:58:25.753Z,27.20
2022-08-11T19:01:17.057Z,27.14
2022-08-11T19:04:11.774Z,26.97
2022-08-11T19:07:06.267Z,26.85
2022-08-11T19:09:56.842Z,26.82
2022-08-11T19:12:44.535Z,26.82
2022-08-11T19:15:32.290Z,26.69
2022-08-11T19:18:20.166Z,26.66
2022-08-11T19:21:07.227Z,26.58
2022-08-11T19:24:05.093Z,26.50
2022-08-11T19:26:53.144Z,26.38
2022-08-11T19:30:04.672Z,26.34
2022-08-11T19:32:49.750Z,26.25
2022-08-11T19:35:36.072Z,26.11
2022-08-11T19:38:23.383Z,25.99
2022-08-11T19:41:09.166Z,26.06
2022-08-11T19:43:59.257Z,26.07
2022-08-11T19:46:45.672Z,25.98
2022-08-11T19:49:33.184Z,25.92
2022-08-11T19:52:19.801Z,25.59
2022-08-11T19:55:07.677Z,25.46
2022-08-11T19:57:58.160Z,25.25
2022-08-11T20:00:44.096Z,25.08
2022-08-11T20:03:31.857Z,24.95
2022-08-11T20:06:24.497Z,24.88
2022-08-11T20:09:15.437Z,24.72
2022-08-11T20:12:06.690Z,24.54
2022-08-11T20:14:57.435Z,24.47
2022-08-11T20:17:50.387Z,24.30
2022-08-11T20:20:38.848Z,24.18
2022-08-11T20:23:27.385Z,24.14
2022-08-11T20:26:30.924Z,24.03
2022-08-11T20:29:18.950Z,23.93
2022-08-11T20:32:09.722Z,23.87
2022-08-11T20:34:58.807Z,23.79
2022-08-11T20:37:50.960Z,23.81
2022-08-11T20:40:44.219Z,23.72
2022-08-11T20:44:07.821Z,23.51
2022-08-11T20:46:44.461Z,23.20
2022-08-11T20:49:45.941Z,23.11
2022-08-11T20:52:44.344Z,23.13
2022-08-11T20:55:46.149Z,23.06
2022-08-11T20:59:13.902Z,22.94
2022-08-11T21:01:52.038Z,22.77
2022-08-11T21:04:53.916Z,22.71
2022-08-11T21:07:44.157Z,22.57
2022-08-11T21:10:52.021Z,22.62
2022-08-11T21:13:46.069Z,22.47
2022-08-11T21:16:38.710Z,22.43
2022-08-11T21:20:00.093Z,22.44
2022-08-11T21:23:06.680Z,22.39
2022-08-11T21:26:26.127Z,22.33
2022-08-11T21:29:17.012Z,22.24
2022-08-11T21:32:06.843Z,22.13
2022-08-11T21:34:54.001Z,22.05
2022-08-11T21:37:42.613Z,21.98
2022-08-11T21:40:37.203Z,21.87
2022-08-11T21:43:25.718Z,21.78
2022-08-11T21:46:13.890Z,21.73
2022-08-11T21:49:02.147Z,21.69
2022-08-11T21:51:50.032Z,21.64
2022-08-11T21:54:37.308Z,21.73
2022-08-11T21:57:25.610Z,21.66
2022-08-11T22:00:17.833Z,21.47
2022-08-11T22:03:07.514Z,21.50
2022-08-11T22:05:56.541Z,21.45
2022-08-11T22:08:42.480Z,21.38
2022-08-11T22:11:32.080Z,21.37
2022-08-11T22:14:23.752Z,21.56
2022-08-11T22:17:10.776Z,21.54
2022-08-11T22:20:00.459Z,21.65
2022-08-11T22:22:53.765Z,21.75
2022-08-11T22:25:54.272Z,21.81
2022-08-11T22:28:42.833Z,21.79
2022-08-11T22:31:31.448Z,21.54
2022-08-11T22:34:17.298Z,21.33
2022-08-11T22:37:07.758Z,21.01
2022-08-11T22:40:01.618Z,20.79
2022-08-11T22:42:53.483Z,20.79
2022-08-11T22:45:40.721Z,20.70
2022-08-11T22:48:29.796Z,20.64
2022-08-11T22:51:18.374Z,20.72
2022-08-11T22:54:06.062Z,20.81
2022-08-11T22:56:52.902Z,20.93
2022-08-11T22:59:41.982Z,21.01
2022-08-11T23:02:28.589Z,20.90
2022-08-11T23:05:16.290Z,20.81
2022-08-11T23:08:04.325Z,20.87
2022-08-11T23:10:51.839Z,20.96
2022-08-11T23:13:38.688Z,21.07
2022-08-11T23:16:25.644Z,21.05
2022-08-11T23:19:15.150Z,21.08
2022-08-11T23:22:22.546Z,21.11
2022-08-11T23:25:08.272Z,21.14
2022-08-11T23:28:05.090Z,21.24
2022-08-11T23:30:53.460Z,21.08
2022-08-11T23:33:42.924Z,21.09
2022-08-11T23:36:36.203Z,21.07
2022-08-11T23:39:33.565Z,21.06
2022-08-11T23:42:19.410Z,21.09
2022-08-11T23:45:07.173Z,21.12
2022-08-11T23:47:58.785Z,21.04
2022-08-11T23:50:45.132Z,21.04
2022-08-11T23:53:32.969Z,20.92
2022-08-11T23:56:21.762Z,20.75
2022-08-11T23:59:09.641Z,20.53
